createdAt,value
2018-11-13T00:01:57.890Z,12.00
2018-11-13T00:04:26.035Z,12.00
2018-11-13T00:06:54.320Z,11.90
2018-11-13T00:09:22.530Z,12.00
2018-11-13T00:11:50.971Z,12.00
2018-11-13T00:14:19.171Z,12.00
2018-11-13T00:16:47.378Z,12.00
2018-11-13T00:19:22.410Z,12.00
2018-11-13T00:21:53.363Z,12.10
2018-11-13T00:24:21.807Z,12.10
2018-11-13T00:26:50.911Z,12.10
2018-11-13T00:30:24.209Z,12.00
2018-11-13T00:32:52.832Z,12.00
2018-11-13T00:35:21.609Z,12.00
2018-11-13T00:37:50.719Z,12.00
2018-11-13T00:40:19.349Z,12.00
2018-11-13T00:42:47.989Z,11.90
2018-11-13T00:45:17.241Z,11.90
2018-11-13T00:47:45.392Z,11.90
2018-11-13T00:50:17.040Z,11.80
2018-11-13T00:52:48.902Z,11.90
2018-11-13T00:55:17.045Z,11.80
2018-11-13T00:57:45.788Z,11.80
2018-11-13T01:00:18.240Z,11.80
2018-11-13T01:02:46.661Z,11.80
2018-11-13T01:05:16.056Z,11.80
2018-11-13T01:07:45.707Z,11.70
2018-11-13T01:10:16.418Z,11.60
2018-11-13T01:12:48.735Z,11.60
2018-11-13T01:15:18.152Z,11.60
2018-11-13T01:17:46.985Z,11.60
2018-11-13T01:20:15.956Z,11.60
2018-11-13T01:22:44.189Z,11.60
2018-11-13T01:25:13.430Z,11.60
2018-11-13T01:27:42.138Z,11.60
2018-11-13T01:30:11.250Z,11.60
2018-11-13T01:32:40.730Z,11.60
2018-11-13T01:35:15.177Z,11.60
2018-11-13T01:37:44.098Z,11.60
2018-11-13T01:40:14.134Z,11.60
2018-11-13T01:42:44.327Z,11.60
2018-11-13T01:45:13.725Z,11.60
2018-11-13T01:47:41.994Z,11.60
2018-11-13T01:50:10.825Z,11.60
2018-11-13T01:52:38.993Z,11.60
2018-11-13T01:55:08.898Z,11.50
2018-11-13T01:57:44.150Z,11.50
2018-11-13T02:00:15.467Z,11.50
2018-11-13T02:02:44.493Z,11.50
2018-11-13T02:05:12.810Z,11.50
2018-11-13T02:07:41.012Z,11.40
2018-11-13T02:10:09.277Z,11.50
2018-11-13T02:12:37.490Z,11.40
2018-11-13T02:15:06.626Z,11.40
2018-11-13T02:17:35.195Z,11.40
2018-11-13T02:20:04.328Z,11.30
2018-11-13T02:22:32.645Z,11.30
2018-11-13T02:25:01.108Z,11.40
2018-11-13T02:27:29.790Z,11.40
2018-11-13T02:29:57.974Z,11.40
2018-11-13T02:32:26.162Z,11.40
2018-11-13T02:34:54.366Z,11.40
2018-11-13T02:37:23.078Z,11.40
2018-11-13T02:39:51.306Z,11.50
2018-11-13T02:42:19.495Z,11.50
2018-11-13T02:44:47.666Z,11.40
2018-11-13T02:47:15.889Z,11.40
2018-11-13T02:49:44.200Z,11.40
2018-11-13T02:52:13.441Z,11.40
2018-11-13T02:54:41.630Z,11.40
2018-11-13T02:57:09.839Z,11.40
2018-11-13T02:59:38.040Z,11.40
2018-11-13T03:02:06.853Z,11.40
2018-11-13T03:04:35.067Z,11.40
2018-11-13T03:07:03.292Z,11.40
2018-11-13T03:09:31.917Z,11.40
2018-11-13T03:12:00.149Z,11.40
2018-11-13T03:14:28.358Z,11.30
2018-11-13T03:16:56.540Z,11.30
2018-11-13T03:19:24.807Z,11.30
2018-11-13T03:21:53.275Z,11.20
2018-11-13T03:24:21.424Z,11.20
2018-11-13T03:26:49.595Z,11.20
2018-11-13T03:29:17.786Z,11.10
2018-11-13T03:31:46.063Z,11.10
2018-11-13T03:34:14.952Z,11.10
2018-11-13T03:36:43.125Z,11.10
2018-11-13T03:39:11.887Z,11.10
2018-11-13T03:41:40.359Z,11.10
2018-11-13T03:44:09.928Z,11.10
2018-11-13T03:46:38.154Z,11.10
2018-11-13T03:49:07.130Z,11.10
2018-11-13T03:51:35.312Z,11.10
2018-11-13T03:54:03.506Z,11.10
2018-11-13T03:56:31.823Z,11.10
2018-11-13T03:58:59.999Z,11.00
2018-11-13T04:01:28.191Z,10.90
2018-11-13T04:03:56.714Z,10.90
2018-11-13T04:06:24.899Z,10.90
2018-11-13T04:08:53.090Z,10.80
2018-11-13T04:11:21.893Z,10.80
2018-11-13T04:13:50.477Z,10.80
2018-11-13T04:16:18.902Z,10.70
2018-11-13T04:18:47.075Z,10.70
2018-11-13T04:21:15.238Z,10.70
2018-11-13T04:23:43.416Z,10.70
2018-11-13T04:26:11.619Z,10.70
2018-11-13T04:28:39.807Z,10.60
2018-11-13T04:31:08.027Z,10.60
2018-11-13T04:33:36.241Z,10.60
2018-11-13T04:36:07.962Z,10.60
2018-11-13T04:38:36.149Z,10.50
2018-11-13T04:41:10.983Z,10.50
2018-11-13T04:43:44.120Z,10.50
2018-11-13T04:46:12.350Z,10.50
2018-11-13T04:48:40.565Z,10.50
2018-11-13T04:51:08.766Z,10.50
2018-11-13T04:53:37.775Z,10.50
2018-11-13T04:56:06.293Z,10.50
2018-11-13T04:58:35.113Z,10.50
2018-11-13T05:01:03.789Z,10.40
2018-11-13T05:03:31.935Z,10.40
2018-11-13T05:06:00.265Z,10.40
2018-11-13T05:08:28.438Z,10.40
2018-11-13T05:10:56.648Z,10.40
2018-11-13T05:13:25.251Z,10.40
2018-11-13T05:15:53.442Z,10.40
2018-11-13T05:18:21.618Z,10.50
2018-11-13T05:20:53.278Z,10.50
2018-11-13T05:23:21.441Z,10.50
2018-11-13T05:25:49.669Z,10.50
2018-11-13T05:28:17.865Z,10.50
2018-11-13T05:30:46.594Z,10.50
2018-11-13T05:33:15.155Z,10.50
2018-11-13T05:35:43.362Z,10.50
2018-11-13T05:38:11.575Z,10.50
2018-11-13T05:40:40.478Z,10.50
2018-11-13T05:43:09.298Z,10.50
2018-11-13T05:45:37.535Z,10.50
2018-11-13T05:48:05.767Z,10.50
2018-11-13T05:50:33.944Z,10.40
2018-11-13T05:53:02.154Z,10.40
2018-11-13T05:55:30.730Z,10.40
2018-11-13T05:58:00.599Z,10.40
2018-11-13T06:00:30.635Z,10.50
2018-11-13T06:02:59.071Z,10.50
2018-11-13T06:05:27.197Z,10.50
2018-11-13T06:07:55.461Z,10.40
2018-11-13T06:10:24.003Z,10.50
2018-11-13T06:12:52.263Z,10.40
2018-11-13T06:15:20.758Z,10.40
2018-11-13T06:17:48.912Z,10.40
2018-11-13T06:20:17.289Z,10.40
2018-11-13T06:22:45.572Z,10.40
2018-11-13T06:25:14.955Z,10.40
2018-11-13T06:27:44.141Z,10.40
2018-11-13T06:30:15.521Z,10.40
2018-11-13T06:32:44.106Z,10.40
2018-11-13T06:35:12.306Z,10.40
2018-11-13T06:37:40.834Z,10.40
2018-11-13T06:40:09.446Z,10.40
2018-11-13T06:42:37.926Z,10.40
2018-11-13T06:45:18.425Z,10.40
2018-11-13T06:47:47.258Z,10.40
2018-11-13T06:50:15.456Z,10.40
2018-11-13T06:52:44.467Z,10.40
2018-11-13T06:55:33.037Z,10.40
2018-11-13T06:58:01.580Z,10.40
2018-11-13T07:00:29.799Z,10.40
2018-11-13T07:02:57.966Z,10.40
2018-11-13T07:05:26.162Z,10.40
2018-11-13T07:07:55.054Z,10.40
2018-11-13T07:10:24.895Z,10.30
2018-11-13T07:12:54.174Z,10.40
2018-11-13T07:15:28.411Z,10.30
2018-11-13T07:17:58.846Z,10.30
2018-11-13T07:20:28.225Z,10.30
2018-11-13T07:23:03.062Z,10.30
2018-11-13T07:25:32.046Z,10.30
2018-11-13T07:28:00.443Z,10.30
2018-11-13T07:30:28.810Z,10.30
2018-11-13T07:32:57.022Z,10.30
2018-11-13T07:35:25.439Z,10.30
2018-11-13T07:37:55.022Z,10.30
2018-11-13T07:40:23.225Z,10.30
2018-11-13T07:42:51.568Z,10.30
2018-11-13T07:45:20.295Z,10.30
2018-11-13T07:47:48.814Z,10.40
2018-11-13T07:50:18.410Z,10.30
2018-11-13T07:52:46.673Z,10.40
2018-11-13T07:55:16.004Z,10.40
2018-11-13T07:57:46.094Z,10.40
2018-11-13T08:00:19.355Z,10.40
2018-11-13T08:02:48.873Z,10.40
2018-11-13T08:05:17.199Z,10.40
2018-11-13T08:07:45.898Z,10.40
2018-11-13T08:10:14.221Z,10.40
2018-11-13T08:12:42.455Z,10.50
2018-11-13T08:15:12.220Z,10.50
2018-11-13T08:17:47.063Z,10.50
2018-11-13T08:20:16.146Z,10.50
2018-11-13T08:22:44.494Z,10.50
2018-11-13T08:25:13.512Z,10.50
2018-11-13T08:27:42.066Z,10.50
2018-11-13T08:30:14.043Z,10.50
2018-11-13T08:32:42.603Z,10.50
2018-11-13T08:35:10.891Z,10.50
2018-11-13T08:37:39.246Z,10.50
2018-11-13T08:40:09.322Z,10.50
2018-11-13T08:42:37.544Z,10.50
2018-11-13T08:45:06.647Z,10.40
2018-11-13T08:47:34.814Z,10.40
2018-11-13T08:50:03.050Z,10.40
2018-11-13T08:52:31.219Z,10.40
2018-11-13T08:54:59.389Z,10.40
2018-11-13T08:57:27.548Z,10.40
2018-11-13T08:59:55.751Z,10.30
2018-11-13T09:02:23.955Z,10.40
2018-11-13T09:04:52.415Z,10.40
2018-11-13T09:07:20.616Z,10.40
2018-11-13T09:09:48.845Z,10.50
2018-11-13T09:12:17.395Z,10.50
2018-11-13T09:14:45.559Z,10.60
2018-11-13T09:17:13.754Z,10.60
2018-11-13T09:19:42.082Z,10.80
2018-11-13T09:22:10.274Z,10.90
2018-11-13T09:24:38.498Z,11.00
2018-11-13T09:27:06.743Z,11.10
2018-11-13T09:29:35.148Z,11.20
2018-11-13T09:32:03.303Z,11.20
2018-11-13T09:34:31.522Z,11.30
2018-11-13T09:37:00.054Z,11.30
2018-11-13T09:39:28.209Z,11.40
2018-11-13T09:41:56.477Z,11.50
2018-11-13T09:44:24.690Z,11.60
2018-11-13T09:46:52.974Z,11.70
2018-11-13T09:49:21.459Z,11.70
2018-11-13T09:51:49.702Z,11.70
2018-11-13T09:54:17.939Z,11.70
2018-11-13T09:56:46.366Z,11.60
2018-11-13T09:59:15.003Z,11.70
2018-11-13T10:01:44.488Z,11.70
2018-11-13T10:04:12.776Z,11.80
2018-11-13T10:06:40.509Z,11.90
2018-11-13T10:09:10.767Z,11.90
2018-11-13T10:11:40.291Z,12.00
2018-11-13T10:14:09.670Z,12.00
2018-11-13T10:16:38.646Z,12.10
2018-11-13T10:19:08.213Z,12.10
2018-11-13T10:21:37.286Z,12.30
2018-11-13T10:24:06.206Z,12.40
2018-11-13T10:26:34.577Z,12.50
2018-11-13T10:29:02.620Z,12.50
2018-11-13T10:31:30.882Z,12.40
2018-11-13T10:33:59.138Z,12.50
2018-11-13T10:36:27.578Z,12.80
2018-11-13T10:38:57.601Z,12.90
2018-11-13T10:41:26.001Z,13.00
2018-11-13T10:43:54.222Z,13.00
2018-11-13T10:46:22.418Z,13.00
2018-11-13T10:48:50.941Z,13.00
2018-11-13T10:51:19.463Z,13.20
2018-11-13T10:53:47.635Z,13.20
2018-11-13T10:56:15.995Z,13.20
2018-11-13T10:58:44.051Z,13.10
2018-11-13T11:01:17.643Z,13.00
2018-11-13T11:03:51.378Z,13.00
2018-11-13T11:06:19.597Z,13.20
2018-11-13T11:08:47.766Z,13.10
2018-11-13T11:11:16.004Z,13.00
2018-11-13T11:13:44.272Z,12.90
2018-11-13T11:16:12.370Z,12.80
2018-11-13T11:18:40.572Z,12.80
2018-11-13T11:21:08.662Z,12.80
2018-11-13T11:23:37.058Z,12.80
2018-11-13T11:26:05.622Z,12.80
2018-11-13T11:28:33.765Z,12.90
2018-11-13T11:31:02.069Z,13.00
2018-11-13T11:33:30.266Z,13.20
2018-11-13T11:35:59.649Z,13.30
2018-11-13T11:38:27.800Z,13.50
2018-11-13T11:40:56.001Z,13.60
2018-11-13T11:43:24.174Z,13.60
2018-11-13T11:45:52.362Z,13.60
2018-11-13T11:48:20.567Z,13.50
2018-11-13T11:50:48.778Z,13.40
2018-11-13T11:53:17.346Z,13.20
2018-11-13T11:55:45.528Z,12.90
2018-11-13T11:58:13.679Z,12.80
2018-11-13T12:00:41.930Z,12.60
2018-11-13T12:03:10.082Z,12.50
2018-11-13T12:05:38.214Z,12.50
2018-11-13T12:08:06.412Z,12.40
2018-11-13T12:10:39.455Z,12.40
2018-11-13T12:13:07.875Z,12.40
2018-11-13T12:15:36.289Z,12.50
2018-11-13T12:18:04.850Z,12.50
2018-11-13T12:20:33.014Z,12.50
2018-11-13T12:23:01.171Z,12.40
2018-11-13T12:25:29.459Z,12.30
2018-11-13T12:27:57.682Z,12.20
2018-11-13T12:30:25.814Z,12.70
2018-11-13T12:32:54.047Z,13.70
2018-11-13T12:35:22.699Z,14.40
2018-11-13T12:37:50.887Z,15.30
2018-11-13T12:40:22.110Z,15.80
2018-11-13T12:42:50.690Z,16.30
2018-11-13T12:45:19.410Z,16.70
2018-11-13T12:47:47.623Z,16.90
2018-11-13T12:50:16.978Z,17.10
2018-11-13T12:52:45.150Z,17.30
2018-11-13T12:55:17.934Z,17.20
2018-11-13T12:57:46.947Z,17.30
2018-11-13T13:00:17.650Z,17.20
2018-11-13T13:02:45.906Z,17.70
2018-11-13T13:05:14.125Z,17.40
2018-11-13T13:07:42.308Z,17.10
2018-11-13T13:10:12.282Z,17.10
2018-11-13T13:12:40.521Z,16.90
2018-11-13T13:15:10.731Z,16.70
2018-11-13T13:17:39.207Z,16.40
2018-11-13T13:20:09.578Z,16.00
2018-11-13T13:22:38.343Z,15.80
2018-11-13T13:25:08.306Z,15.40
2018-11-13T13:27:36.781Z,14.90
2018-11-13T13:30:05.520Z,14.50
2018-11-13T13:32:33.715Z,14.30
2018-11-13T13:35:01.918Z,14.20
2018-11-13T13:37:30.110Z,14.00
2018-11-13T13:39:58.608Z,13.80
2018-11-13T13:42:26.774Z,13.80
2018-11-13T13:44:54.949Z,13.80
2018-11-13T13:47:23.085Z,13.80
2018-11-13T13:49:51.239Z,13.70
2018-11-13T13:52:19.390Z,13.70
2018-11-13T13:54:47.922Z,13.60
2018-11-13T13:57:16.762Z,13.50
2018-11-13T13:59:45.012Z,13.30
2018-11-13T14:02:13.111Z,13.30
2018-11-13T14:04:41.306Z,13.20
2018-11-13T14:07:09.570Z,13.10
2018-11-13T14:09:37.754Z,13.10
2018-11-13T14:12:05.907Z,13.00
2018-11-13T14:14:34.193Z,13.00
2018-11-13T14:17:02.390Z,12.90
2018-11-13T14:19:30.592Z,12.90
2018-11-13T14:21:58.754Z,12.90
2018-11-13T14:24:26.968Z,12.90
2018-11-13T14:26:55.552Z,12.90
2018-11-13T14:29:23.718Z,12.80
2018-11-13T14:31:51.918Z,12.80
2018-11-13T14:34:20.342Z,12.80
2018-11-13T14:36:48.728Z,12.70
2018-11-13T14:39:17.022Z,12.60
2018-11-13T14:41:45.303Z,12.60
2018-11-13T14:44:13.575Z,12.50
2018-11-13T14:46:41.980Z,12.40
2018-11-13T14:49:10.412Z,12.30
2018-11-13T14:51:38.612Z,12.20
2018-11-13T14:56:41.837Z,12.10
2018-11-13T14:59:10.078Z,12.00
2018-11-13T15:01:38.411Z,11.90
2018-11-13T15:04:06.657Z,11.80
2018-11-13T15:06:34.942Z,11.80
2018-11-13T15:09:04.049Z,11.60
2018-11-13T15:11:32.224Z,11.60
2018-11-13T15:14:01.017Z,11.60
2018-11-13T15:16:29.236Z,11.50
2018-11-13T15:18:57.678Z,11.40
2018-11-13T15:21:25.899Z,11.30
2018-11-13T15:23:54.391Z,11.20
2018-11-13T15:26:24.341Z,11.00
2018-11-13T15:28:52.546Z,10.90
2018-11-13T15:31:20.770Z,10.80
2018-11-13T15:33:48.932Z,10.60
2018-11-13T15:36:17.345Z,10.40
2018-11-13T15:38:45.666Z,10.30
2018-11-13T15:41:13.852Z,10.20
2018-11-13T15:43:42.318Z,10.00
2018-11-13T15:46:10.533Z,9.90
2018-11-13T15:48:38.632Z,9.80
2018-11-13T15:51:09.060Z,9.80
2018-11-13T15:53:35.387Z,9.80
2018-11-13T15:56:03.563Z,9.70
2018-11-13T15:58:31.920Z,9.60
2018-11-13T23:28:39.146Z,3.20
2018-11-13T23:31:07.366Z,3.20
2018-11-13T23:33:35.518Z,3.20
2018-11-13T23:36:05.041Z,3.10
2018-11-13T23:38:33.258Z,3.10
2018-11-13T23:41:01.498Z,3.00
2018-11-13T23:43:29.686Z,2.90
2018-11-13T23:45:57.906Z,2.90
2018-11-13T23:48:26.126Z,2.80
2018-11-13T23:50:55.161Z,2.80
2018-11-13T23:53:23.338Z,2.80
2018-11-13T23:55:51.514Z,2.80
2018-11-13T23:58:19.686Z,2.70
